createdAt,value
2023-03-29T00:01:57.634Z,9.90
2023-03-29T00:04:34.332Z,6.50
2023-03-29T00:07:07.298Z,9.60
2023-03-29T00:09:39.590Z,6.40
2023-03-29T00:12:12.325Z,7.80
2023-03-29T00:14:44.647Z,12.60
2023-03-29T00:17:17.125Z,11.40
2023-03-29T00:19:49.524Z,11.00
2023-03-29T00:22:22.077Z,8.50
2023-03-29T00:24:56.362Z,9.80
2023-03-29T00:27:29.332Z,11.80
2023-03-29T00:30:02.728Z,10.30
2023-03-29T00:32:35.230Z,8.10
2023-03-29T00:35:09.198Z,7.40
2023-03-29T00:37:41.521Z,11.00
2023-03-29T00:40:16.121Z,9.40
2023-03-29T00:42:48.659Z,7.70
2023-03-29T00:45:23.171Z,7.70
2023-03-29T00:48:00.116Z,7.20
2023-03-29T00:50:39.500Z,7.20
2023-03-29T00:53:15.196Z,9.20
2023-03-29T00:55:54.184Z,5.50
2023-03-29T00:58:32.216Z,6.60
2023-03-29T01:01:11.023Z,6.30
2023-03-29T01:03:49.546Z,5.00
2023-03-29T01:06:26.147Z,7.00
2023-03-29T01:09:02.300Z,5.80
2023-03-29T01:11:43.211Z,7.40
2023-03-29T01:14:23.881Z,7.00
2023-03-29T01:16:56.482Z,6.90
2023-03-29T01:19:33.734Z,6.20
2023-03-29T01:22:17.566Z,8.10
2023-03-29T01:25:04.085Z,6.30
2023-03-29T01:27:57.372Z,8.50
2023-03-29T01:30:34.681Z,5.20
2023-03-29T01:33:11.885Z,5.10
2023-03-29T01:35:50.294Z,6.80
2023-03-29T01:38:29.002Z,5.60
2023-03-29T01:41:03.998Z,5.90
2023-03-29T01:46:15.616Z,5.40
2023-03-29T01:48:53.192Z,7.80
2023-03-29T01:51:33.238Z,5.50
2023-03-29T01:54:08.987Z,8.80
2023-03-29T01:56:45.055Z,6.20
2023-03-29T01:59:20.345Z,5.30
2023-03-29T02:01:56.687Z,7.90
2023-03-29T02:04:37.232Z,10.20
2023-03-29T02:07:11.747Z,8.10
2023-03-29T02:09:45.099Z,5.40
2023-03-29T02:12:18.464Z,7.20
2023-03-29T02:14:50.995Z,6.00
2023-03-29T02:17:25.212Z,7.90
2023-03-29T02:20:01.784Z,7.30
2023-03-29T02:22:43.002Z,6.60
2023-03-29T02:25:15.758Z,7.10
2023-03-29T02:27:48.578Z,7.60
2023-03-29T02:30:22.634Z,8.00
2023-03-29T02:33:02.339Z,10.10
2023-03-29T02:35:40.962Z,9.50
2023-03-29T02:38:14.783Z,8.80
2023-03-29T02:40:48.441Z,8.30
2023-03-29T02:43:25.885Z,7.80
2023-03-29T02:45:59.098Z,9.80
2023-03-29T02:48:33.178Z,9.50
2023-03-29T02:51:13.601Z,10.10
2023-03-29T02:53:52.113Z,8.40
2023-03-29T02:56:25.130Z,9.60
2023-03-29T02:58:57.514Z,9.00
2023-03-29T03:01:29.984Z,12.40
2023-03-29T03:04:02.496Z,12.00
2023-03-29T03:06:36.702Z,6.20
2023-03-29T03:09:10.184Z,6.80
2023-03-29T03:11:45.851Z,7.40
2023-03-29T03:14:18.884Z,8.20
2023-03-29T03:16:52.918Z,7.80
2023-03-29T03:19:25.982Z,9.30
2023-03-29T03:21:58.430Z,10.40
2023-03-29T03:24:32.664Z,11.90
2023-03-29T03:27:06.360Z,15.40
2023-03-29T03:29:39.361Z,18.60
2023-03-29T03:32:17.597Z,20.40
2023-03-29T03:34:58.995Z,18.40
2023-03-29T03:37:31.716Z,19.60
2023-03-29T03:40:09.045Z,20.30
2023-03-29T03:42:41.810Z,17.70
2023-03-29T03:45:14.801Z,18.90
2023-03-29T03:48:11.776Z,55.60
2023-03-29T03:51:07.048Z,49.20
2023-03-29T03:53:40.499Z,41.00
2023-03-29T03:56:18.537Z,41.30
2023-03-29T03:59:09.579Z,78.10
2023-03-29T04:01:52.906Z,49.50
2023-03-29T04:04:25.930Z,34.70
2023-03-29T04:07:19.572Z,23.50
2023-03-29T04:10:23.944Z,20.30
2023-03-29T04:13:02.455Z,17.50
2023-03-29T04:15:38.730Z,13.40
2023-03-29T04:18:13.513Z,14.10
2023-03-29T04:20:50.901Z,11.10
2023-03-29T04:23:24.577Z,13.20
2023-03-29T04:25:58.239Z,11.60
2023-03-29T04:29:05.972Z,14.00
2023-03-29T04:31:46.622Z,19.70
2023-03-29T04:34:47.518Z,18.90
2023-03-29T04:37:22.093Z,24.80
2023-03-29T04:39:55.846Z,22.20
2023-03-29T04:42:28.661Z,16.00
2023-03-29T04:45:01.342Z,16.10
2023-03-29T04:47:49.581Z,20.10
2023-03-29T04:50:24.335Z,19.50
2023-03-29T04:53:00.344Z,26.50
2023-03-29T04:55:33.340Z,28.60
2023-03-29T04:58:06.935Z,38.60
2023-03-29T05:00:40.539Z,38.00
2023-03-29T05:03:18.728Z,37.90
2023-03-29T05:06:13.013Z,35.60
2023-03-29T05:08:45.367Z,29.40
2023-03-29T05:11:31.715Z,27.50
2023-03-29T05:14:07.433Z,23.50
2023-03-29T05:16:41.074Z,29.00
2023-03-29T05:19:14.055Z,33.30
2023-03-29T05:21:51.068Z,24.40
2023-03-29T05:24:26.347Z,22.80
2023-03-29T05:27:08.197Z,21.10
2023-03-29T05:29:42.016Z,16.50
2023-03-29T05:32:39.259Z,19.20
2023-03-29T05:35:12.960Z,18.50
2023-03-29T05:37:47.377Z,23.50
2023-03-29T05:40:20.317Z,14.10
2023-03-29T05:43:18.581Z,36.60
2023-03-29T05:45:53.330Z,13.80
2023-03-29T05:50:59.125Z,12.50
2023-03-29T05:53:32.327Z,13.40
2023-03-29T05:56:05.544Z,9.70
2023-03-29T05:58:38.336Z,13.00
2023-03-29T06:01:15.016Z,9.30
2023-03-29T06:03:59.439Z,13.10
2023-03-29T06:06:41.865Z,25.30
2023-03-29T06:09:14.183Z,13.30
2023-03-29T06:12:16.237Z,10.40
2023-03-29T06:14:58.324Z,8.60
2023-03-29T06:17:40.946Z,8.00
2023-03-29T06:20:15.085Z,9.30
2023-03-29T06:22:49.638Z,9.30
2023-03-29T06:25:22.712Z,9.00
2023-03-29T06:27:55.430Z,8.80
2023-03-29T06:30:27.960Z,8.70
2023-03-29T06:33:02.873Z,7.80
2023-03-29T06:36:04.626Z,6.70
2023-03-29T06:38:37.374Z,8.20
2023-03-29T06:41:24.848Z,9.30
2023-03-29T06:44:17.491Z,9.40
2023-03-29T06:47:03.923Z,8.40
2023-03-29T06:49:36.430Z,8.80
2023-03-29T06:52:15.925Z,8.20
2023-03-29T06:54:50.602Z,10.60
2023-03-29T06:57:23.907Z,8.80
2023-03-29T06:59:56.310Z,7.90
2023-03-29T07:02:35.952Z,9.20
2023-03-29T07:05:17.913Z,10.90
2023-03-29T07:10:49.806Z,46.50
2023-03-29T07:13:42.749Z,13.60
2023-03-29T07:16:16.358Z,28.50
2023-03-29T07:19:16.196Z,23.90
2023-03-29T07:22:01.204Z,13.90
2023-03-29T07:24:45.087Z,10.50
2023-03-29T07:27:18.310Z,10.00
2023-03-29T07:29:54.038Z,11.90
2023-03-29T07:32:28.160Z,10.10
2023-03-29T07:35:09.991Z,10.10
2023-03-29T07:40:23.633Z,10.80
2023-03-29T07:43:03.158Z,9.90
2023-03-29T07:45:37.922Z,9.40
2023-03-29T07:48:14.765Z,7.40
2023-03-29T07:50:58.839Z,5.70
2023-03-29T07:53:35.612Z,6.90
2023-03-29T07:56:10.989Z,9.20
2023-03-29T07:58:56.167Z,8.10
2023-03-29T08:01:28.586Z,10.50
2023-03-29T08:04:11.346Z,8.30
2023-03-29T08:07:12.755Z,5.30
2023-03-29T08:10:15.422Z,5.60
2023-03-29T08:13:05.011Z,8.10
2023-03-29T08:15:46.395Z,4.40
2023-03-29T08:18:28.195Z,6.60
2023-03-29T08:21:00.857Z,4.60
2023-03-29T08:23:33.755Z,7.50
2023-03-29T08:26:25.921Z,4.90
2023-03-29T08:28:58.499Z,6.10
2023-03-29T08:31:33.728Z,8.80
2023-03-29T08:34:06.549Z,5.40
2023-03-29T08:36:55.852Z,5.30
2023-03-29T08:39:43.497Z,5.80
2023-03-29T08:43:03.469Z,8.40
2023-03-29T08:45:54.933Z,5.80
2023-03-29T08:48:30.099Z,11.00
2023-03-29T08:53:44.224Z,5.30
2023-03-29T08:56:28.672Z,5.80
2023-03-29T08:59:30.475Z,5.90
2023-03-29T09:02:07.188Z,5.00
2023-03-29T09:04:42.594Z,5.40
2023-03-29T09:07:35.266Z,4.50
2023-03-29T09:10:13.657Z,5.00
2023-03-29T09:12:58.087Z,4.40
2023-03-29T09:15:38.999Z,3.10
2023-03-29T09:18:31.548Z,4.60
2023-03-29T09:21:12.948Z,7.50
2023-03-29T09:24:01.266Z,41.50
2023-03-29T09:26:54.771Z,100.50
2023-03-29T09:29:48.887Z,58.80
2023-03-29T09:32:30.093Z,36.80
2023-03-29T09:35:18.364Z,57.90
2023-03-29T09:37:54.363Z,104.70
2023-03-29T09:40:34.379Z,166.80
2023-03-29T09:43:18.442Z,200.50
2023-03-29T09:45:55.219Z,112.70
2023-03-29T09:48:31.019Z,101.90
2023-03-29T09:51:06.050Z,21.50
2023-03-29T09:53:38.638Z,82.00
2023-03-29T09:56:37.913Z,85.10
2023-03-29T09:59:15.245Z,38.40
2023-03-29T10:01:47.719Z,46.70
2023-03-29T10:04:22.333Z,39.90
2023-03-29T10:07:01.511Z,25.00
2023-03-29T10:09:35.364Z,34.90
2023-03-29T10:12:23.165Z,28.20
2023-03-29T10:14:56.634Z,81.80
2023-03-29T10:17:33.340Z,14.60
2023-03-29T10:20:14.516Z,39.60
2023-03-29T10:22:56.261Z,30.60
2023-03-29T10:25:31.350Z,70.00
2023-03-29T10:33:19.931Z,9.10
2023-03-29T10:35:53.416Z,7.40
2023-03-29T10:38:29.031Z,16.40
2023-03-29T10:41:11.174Z,4.40
2023-03-29T10:43:49.509Z,29.40
2023-03-29T10:46:31.242Z,10.30
2023-03-29T10:49:10.280Z,12.50
2023-03-29T10:51:48.174Z,11.20
2023-03-29T10:54:24.302Z,50.30
2023-03-29T10:56:59.148Z,9.60
2023-03-29T10:59:36.456Z,9.70
2023-03-29T11:02:34.141Z,6.80
2023-03-29T11:05:33.393Z,7.50
2023-03-29T11:08:29.754Z,7.40
2023-03-29T11:11:16.281Z,5.70
2023-03-29T11:13:59.422Z,9.60
2023-03-29T11:16:40.480Z,5.10
2023-03-29T11:19:39.840Z,8.60
2023-03-29T11:22:21.441Z,5.50
2023-03-29T11:25:14.031Z,7.60
2023-03-29T11:27:56.472Z,8.60
2023-03-29T11:30:36.962Z,8.30
2023-03-29T11:33:19.399Z,5.00
2023-03-29T11:36:01.819Z,4.00
2023-03-29T11:38:42.301Z,3.00
2023-03-29T11:41:20.245Z,7.20
2023-03-29T11:43:56.353Z,5.00
2023-03-29T11:46:32.757Z,6.00
2023-03-29T11:49:11.268Z,4.90
2023-03-29T11:51:47.246Z,4.90
2023-03-29T11:54:24.924Z,5.10
2023-03-29T11:57:01.855Z,5.60
2023-03-29T11:59:38.746Z,6.60
2023-03-29T12:02:19.836Z,5.20
2023-03-29T12:04:56.978Z,8.30
2023-03-29T12:07:36.344Z,8.10
2023-03-29T12:10:17.456Z,8.60
2023-03-29T12:12:56.947Z,5.80
2023-03-29T12:15:33.806Z,11.20
2023-03-29T12:18:16.006Z,7.50
2023-03-29T12:20:54.338Z,6.90
2023-03-29T12:23:27.564Z,8.20
2023-03-29T12:26:07.091Z,10.20
2023-03-29T12:29:05.629Z,10.20
2023-03-29T12:31:45.848Z,7.40
2023-03-29T12:34:44.885Z,8.60
2023-03-29T12:37:47.064Z,8.50
2023-03-29T12:40:44.174Z,7.10
2023-03-29T12:43:38.832Z,7.50
2023-03-29T12:46:35.933Z,5.40
2023-03-29T12:49:15.886Z,5.10
2023-03-29T12:51:48.768Z,4.60
2023-03-29T12:54:28.038Z,9.10
2023-03-29T12:57:03.681Z,8.10
2023-03-29T12:59:44.950Z,12.60
2023-03-29T13:02:37.287Z,11.90
2023-03-29T13:05:31.212Z,7.40
2023-03-29T13:08:20.920Z,7.30
2023-03-29T13:10:57.602Z,9.10
2023-03-29T13:13:35.069Z,8.70
2023-03-29T13:16:19.888Z,7.70
2023-03-29T13:19:06.776Z,9.10
2023-03-29T13:21:54.515Z,6.60
2023-03-29T13:24:41.223Z,6.40
2023-03-29T13:27:26.334Z,14.90
2023-03-29T13:30:20.933Z,11.60
2023-03-29T13:33:05.616Z,11.40
2023-03-29T13:35:46.988Z,6.80
2023-03-29T13:38:23.717Z,7.00
2023-03-29T13:41:04.523Z,6.50
2023-03-29T13:43:52.580Z,8.10
2023-03-29T13:46:36.589Z,15.40
2023-03-29T13:49:16.652Z,15.00
2023-03-29T13:52:07.225Z,31.10
2023-03-29T13:54:44.004Z,76.20
2023-03-29T13:57:20.704Z,39.00
2023-03-29T14:00:01.450Z,18.50
2023-03-29T14:02:49.410Z,26.80
2023-03-29T14:05:26.066Z,22.60
2023-03-29T14:08:03.059Z,25.20
2023-03-29T14:10:40.433Z,11.50
2023-03-29T14:13:16.280Z,19.70
2023-03-29T14:15:54.253Z,18.80
2023-03-29T14:18:29.167Z,26.50
2023-03-29T14:21:02.875Z,37.90
2023-03-29T14:23:38.088Z,19.90
2023-03-29T14:26:15.814Z,12.60
2023-03-29T14:28:50.675Z,13.00
2023-03-29T14:34:00.498Z,11.00
2023-03-29T14:36:34.418Z,12.30
2023-03-29T14:39:12.561Z,33.00
2023-03-29T14:41:49.725Z,79.90
2023-03-29T14:44:26.048Z,82.10
2023-03-29T14:46:59.041Z,20.60
2023-03-29T14:49:33.019Z,16.20
2023-03-29T14:52:05.531Z,25.60
2023-03-29T14:54:38.077Z,23.60
2023-03-29T14:57:14.617Z,18.80
2023-03-29T14:59:55.841Z,14.20
2023-03-29T15:02:30.963Z,17.50
2023-03-29T15:05:05.250Z,24.30
2023-03-29T15:07:39.971Z,19.20
2023-03-29T15:10:20.879Z,50.00
2023-03-29T15:12:54.768Z,36.00
2023-03-29T15:15:28.335Z,56.90
2023-03-29T15:18:01.443Z,44.30
2023-03-29T15:20:38.037Z,26.40
2023-03-29T15:23:23.202Z,14.50
2023-03-29T15:25:58.783Z,16.60
2023-03-29T15:28:34.841Z,22.80
2023-03-29T15:31:14.209Z,16.20
2023-03-29T15:33:46.823Z,42.70
2023-03-29T15:36:19.236Z,85.30
2023-03-29T15:38:51.705Z,50.70
2023-03-29T15:41:24.225Z,72.40
2023-03-29T15:43:57.648Z,27.00
2023-03-29T15:46:29.956Z,31.00
2023-03-29T15:49:02.331Z,26.90
2023-03-29T15:51:34.984Z,30.50
2023-03-29T15:54:08.015Z,41.70
2023-03-29T15:56:48.057Z,40.00
2023-03-29T15:59:20.646Z,48.10
2023-03-29T16:01:54.593Z,46.70
2023-03-29T16:04:27.729Z,48.30
2023-03-29T16:07:00.581Z,43.50
2023-03-29T16:09:32.921Z,64.20
2023-03-29T16:12:05.509Z,53.70
2023-03-29T16:14:37.961Z,57.00
2023-03-29T16:17:10.247Z,40.80
2023-03-29T16:19:42.626Z,66.60
2023-03-29T16:22:15.024Z,141.50
2023-03-29T16:24:47.274Z,32.80
2023-03-29T16:27:19.552Z,51.90
2023-03-29T16:29:51.871Z,57.90
2023-03-29T16:32:24.489Z,73.20
2023-03-29T16:34:58.497Z,55.90
2023-03-29T16:37:30.892Z,38.90
2023-03-29T16:40:07.393Z,30.80
2023-03-29T16:42:39.670Z,29.90
2023-03-29T16:45:15.661Z,23.20
2023-03-29T16:47:48.990Z,19.70
2023-03-29T16:50:23.109Z,29.80
2023-03-29T16:52:55.487Z,33.90
2023-03-29T16:55:28.527Z,33.20
2023-03-29T16:58:00.980Z,33.40
2023-03-29T17:00:33.952Z,44.20
2023-03-29T17:03:06.898Z,47.50
2023-03-29T17:05:41.723Z,86.80
2023-03-29T17:10:45.435Z,71.70
2023-03-29T17:13:17.852Z,87.60
2023-03-29T17:15:52.355Z,48.40
2023-03-29T17:18:26.721Z,65.80
2023-03-29T17:21:01.699Z,54.40
2023-03-29T17:23:33.967Z,47.10
2023-03-29T17:26:07.174Z,55.70
2023-03-29T17:28:39.439Z,57.30
2023-03-29T17:31:11.824Z,41.80
2023-03-29T17:33:44.254Z,47.80
2023-03-29T17:36:16.602Z,47.10
2023-03-29T17:38:48.944Z,39.90
2023-03-29T17:41:21.540Z,31.60
2023-03-29T17:43:53.892Z,23.80
2023-03-29T17:46:26.408Z,25.10
2023-03-29T17:48:59.283Z,23.60
2023-03-29T17:51:31.605Z,21.90
2023-03-29T17:54:04.073Z,25.70
2023-03-29T17:56:36.331Z,17.80
2023-03-29T17:59:08.603Z,16.40
2023-03-29T18:01:41.059Z,16.80
2023-03-29T18:04:13.849Z,20.70
2023-03-29T18:06:46.902Z,26.80
2023-03-29T18:09:19.301Z,52.20
2023-03-29T18:11:51.606Z,30.00
2023-03-29T18:14:23.871Z,23.60
2023-03-29T18:16:57.147Z,32.00
2023-03-29T18:19:29.823Z,66.30
2023-03-29T18:22:02.086Z,126.30
2023-03-29T18:24:34.506Z,217.50
2023-03-29T18:27:06.839Z,194.40
2023-03-29T18:29:40.322Z,136.70
2023-03-29T18:32:12.856Z,75.90
2023-03-29T18:34:45.473Z,46.30
2023-03-29T18:37:17.780Z,36.10
2023-03-29T18:39:50.290Z,29.10
2023-03-29T18:42:22.765Z,31.00
2023-03-29T18:44:55.155Z,25.60
2023-03-29T18:47:27.741Z,21.30
2023-03-29T18:49:59.968Z,19.80
2023-03-29T18:52:32.334Z,20.20
2023-03-29T18:55:04.832Z,25.30
2023-03-29T18:57:37.238Z,23.30
2023-03-29T19:00:13.102Z,26.10
2023-03-29T19:02:45.787Z,27.80
2023-03-29T19:05:18.626Z,23.90
2023-03-29T19:07:51.269Z,21.00
2023-03-29T19:10:24.799Z,19.20
2023-03-29T19:12:57.107Z,22.80
2023-03-29T19:15:29.602Z,20.50
2023-03-29T19:18:01.980Z,19.20
2023-03-29T19:20:35.672Z,22.20
2023-03-29T19:23:08.117Z,21.80
2023-03-29T19:25:40.395Z,18.70
2023-03-29T19:28:12.960Z,21.10
2023-03-29T19:30:45.203Z,18.20
2023-03-29T19:33:18.558Z,41.40
2023-03-29T19:35:52.534Z,25.30
2023-03-29T19:38:24.867Z,24.80
2023-03-29T19:40:57.271Z,37.80
2023-03-29T19:43:30.117Z,36.40
2023-03-29T19:46:10.500Z,21.10
2023-03-29T19:48:43.117Z,20.20
2023-03-29T19:51:15.639Z,18.20
2023-03-29T19:53:48.017Z,18.80
2023-03-29T19:56:20.246Z,30.70
2023-03-29T19:58:52.823Z,28.20
2023-03-29T20:01:27.173Z,102.60
2023-03-29T20:03:59.955Z,116.00
2023-03-29T20:06:32.257Z,52.90
2023-03-29T20:09:05.320Z,34.90
2023-03-29T20:11:37.724Z,27.70
2023-03-29T20:14:10.019Z,31.80
2023-03-29T20:16:44.168Z,33.70
2023-03-29T20:19:24.629Z,26.80
2023-03-29T20:21:57.439Z,35.70
2023-03-29T20:24:31.454Z,32.00
2023-03-29T20:27:04.703Z,46.20
2023-03-29T20:29:36.998Z,38.20
2023-03-29T20:32:09.499Z,26.40
2023-03-29T20:34:41.955Z,28.90
2023-03-29T20:37:14.755Z,40.10
2023-03-29T20:39:47.037Z,24.50
2023-03-29T20:42:24.678Z,88.10
2023-03-29T20:44:57.225Z,50.60
2023-03-29T20:47:29.662Z,25.50
2023-03-29T20:50:04.240Z,22.60
2023-03-29T20:52:37.258Z,24.90
2023-03-29T20:55:12.558Z,31.60
2023-03-29T20:57:44.908Z,28.10
2023-03-29T21:00:19.799Z,49.40
2023-03-29T21:02:55.273Z,61.30
2023-03-29T21:05:28.954Z,48.50
2023-03-29T21:08:01.598Z,51.10
2023-03-29T21:10:36.608Z,24.60
2023-03-29T21:13:12.046Z,23.30
2023-03-29T21:15:44.422Z,21.80
2023-03-29T21:18:16.915Z,20.90
2023-03-29T21:20:50.014Z,17.70
2023-03-29T21:23:23.173Z,29.30
2023-03-29T21:25:56.978Z,50.10
2023-03-29T21:28:29.249Z,35.80
2023-03-29T21:31:05.211Z,19.90
2023-03-29T21:33:38.908Z,22.50
2023-03-29T21:36:12.864Z,21.60
2023-03-29T21:38:45.133Z,20.50
2023-03-29T21:41:18.032Z,18.30
2023-03-29T21:43:50.727Z,21.10
2023-03-29T21:46:24.732Z,19.70
2023-03-29T21:48:57.146Z,21.90
2023-03-29T21:51:29.501Z,16.70
2023-03-29T21:54:01.758Z,15.60
2023-03-29T21:56:33.993Z,17.60
2023-03-29T21:59:06.505Z,15.20
2023-03-29T22:01:39.121Z,14.70
2023-03-29T22:04:13.193Z,15.40
2023-03-29T22:06:50.112Z,34.40
2023-03-29T22:09:22.386Z,16.80
2023-03-29T22:11:54.744Z,13.90
2023-03-29T22:14:29.427Z,16.40
2023-03-29T22:17:01.909Z,16.90
2023-03-29T22:19:34.271Z,16.30
2023-03-29T22:22:07.330Z,14.90
2023-03-29T22:24:39.681Z,18.10
2023-03-29T22:27:12.892Z,14.10
2023-03-29T22:29:45.375Z,14.40
2023-03-29T22:32:17.863Z,12.00
2023-03-29T22:34:50.274Z,13.30
2023-03-29T22:37:23.003Z,15.20
2023-03-29T22:39:55.863Z,12.50
2023-03-29T22:42:28.155Z,15.20
2023-03-29T22:45:00.513Z,14.50
2023-03-29T22:47:33.242Z,15.30
2023-03-29T22:50:06.330Z,12.40
2023-03-29T22:52:38.676Z,12.10
2023-03-29T22:55:12.754Z,13.00
2023-03-29T22:57:45.169Z,13.00
2023-03-29T23:00:18.744Z,12.60
2023-03-29T23:02:51.363Z,14.80
2023-03-29T23:05:23.825Z,15.20
2023-03-29T23:07:56.441Z,18.20
2023-03-29T23:10:30.624Z,15.40
2023-03-29T23:13:09.605Z,11.90
2023-03-29T23:15:47.376Z,14.70
2023-03-29T23:18:21.575Z,16.20
2023-03-29T23:20:56.665Z,14.50
2023-03-29T23:23:29.991Z,12.80
2023-03-29T23:26:02.583Z,13.10
2023-03-29T23:28:35.433Z,13.80
2023-03-29T23:31:10.681Z,17.40
2023-03-29T23:33:43.953Z,16.80
2023-03-29T23:36:18.762Z,15.10
2023-03-29T23:38:51.469Z,13.70
2023-03-29T23:41:28.230Z,16.00
2023-03-29T23:44:00.615Z,13.00
2023-03-29T23:46:33.650Z,15.40
2023-03-29T23:49:06.098Z,14.40
2023-03-29T23:51:39.263Z,13.50
2023-03-29T23:54:12.140Z,15.80
2023-03-29T23:56:44.597Z,13.90
2023-03-29T23:59:16.956Z,14.10
